Time;durP1;ratioP1;P1;durP2;ratioP2;P2;SDS_P1;SDS_P2;PMS_P1;PMS_P2;Temp;Humidity;BMP_temperature;BMP_pressure;BME280_temperature;BME280_humidity;BME280_pressure;Samples;Min_cycle;Max_cycle;Signal;HPM_P1;HPM_P2
2022/11/30 00:01:31;;;;;;;50.97;30.45;;;6.50;99.90;;;;;;4983448;28;20421;-61
2022/11/30 00:03:57;;;;;;;46.40;28.88;;;6.40;99.90;;;;;;5002600;28;20045;-61
2022/11/30 00:06:24;;;;;;;52.60;30.90;;;6.40;99.90;;;;;;5009955;28;20065;-60
2022/11/30 00:08:55;;;;;;;50.13;30.85;;;6.30;99.90;;;;;;5002153;28;20633;-62
2022/11/30 00:11:22;;;;;;;52.15;31.45;;;6.20;99.90;;;;;;5016959;28;20053;-61
2022/11/30 00:13:48;;;;;;;54.33;30.98;;;6.10;99.90;;;;;;5003011;28;20782;-60
2022/11/30 00:16:14;;;;;;;54.50;31.80;;;6.20;99.90;;;;;;5001931;28;20085;-61
2022/11/30 00:18:39;;;;;;;53.17;31.52;;;6.20;99.90;;;;;;5002948;28;20350;-61
2022/11/30 00:21:07;;;;;;;55.30;31.40;;;6.20;99.90;;;;;;5000698;28;20499;-60
2022/11/30 00:23:38;;;;;;;54.67;31.08;;;6.50;99.90;;;;;;5002966;28;20569;-61
2022/11/30 00:26:06;;;;;;;54.28;31.70;;;6.50;99.90;;;;;;5002800;28;20065;-60
2022/11/30 00:28:33;;;;;;;57.22;31.83;;;6.20;99.90;;;;;;5001061;28;20069;-61
2022/11/30 00:31:01;;;;;;;55.05;32.08;;;6.40;99.90;;;;;;5001455;28;20091;-61
2022/11/30 00:33:28;;;;;;;54.70;32.45;;;6.30;99.90;;;;;;5002945;28;20393;-60
2022/11/30 00:36:02;;;;;;;58.83;33.92;;;6.40;99.90;;;;;;5002906;28;20038;-60
2022/11/30 00:38:28;;;;;;;58.75;34.05;;;6.10;99.90;;;;;;5003379;28;20046;-60
2022/11/30 00:40:53;;;;;;;59.63;33.47;;;6.10;99.90;;;;;;5002456;28;20057;-61
2022/11/30 00:43:19;;;;;;;55.00;31.65;;;6.10;99.90;;;;;;5003033;28;20084;-61
2022/11/30 00:45:45;;;;;;;57.80;33.05;;;6.30;99.90;;;;;;5001313;28;20501;-61
2022/11/30 00:48:11;;;;;;;55.60;31.65;;;6.40;99.90;;;;;;5002866;28;20632;-60
2022/11/30 00:50:37;;;;;;;56.08;32.10;;;6.30;99.90;;;;;;5003096;28;20177;-60
2022/11/30 00:53:02;;;;;;;57.63;32.72;;;5.90;99.90;;;;;;5002619;28;20092;-61
2022/11/30 00:55:30;;;;;;;56.60;32.92;;;5.90;99.90;;;;;;5001871;28;20119;-61
2022/11/30 00:57:56;;;;;;;54.85;31.33;;;6.10;99.90;;;;;;5001632;28;20108;-61
2022/11/30 01:00:21;;;;;;;57.75;33.33;;;6.00;99.90;;;;;;5005341;28;20508;-61
2022/11/30 01:02:47;;;;;;;60.83;33.10;;;6.30;99.90;;;;;;5004573;28;20056;-61
2022/11/30 01:05:13;;;;;;;57.08;31.92;;;6.00;99.90;;;;;;5012983;28;20076;-61
2022/11/30 01:07:38;;;;;;;61.08;33.47;;;6.30;99.90;;;;;;5009954;28;20117;-61
2022/11/30 01:10:05;;;;;;;59.25;33.95;;;6.00;99.90;;;;;;5006048;28;20054;-60
2022/11/30 01:12:30;;;;;;;59.90;33.80;;;6.20;99.90;;;;;;5003561;28;20056;-60
2022/11/30 01:14:56;;;;;;;61.08;32.67;;;5.90;99.90;;;;;;5005072;28;20041;-61
2022/11/30 01:17:22;;;;;;;60.08;32.97;;;6.30;99.90;;;;;;5006195;28;20042;-60
2022/11/30 01:19:47;;;;;;;61.42;35.28;;;6.10;99.90;;;;;;5005697;28;20057;-61
2022/11/30 01:22:13;;;;;;;64.07;34.63;;;6.20;99.90;;;;;;5005087;28;20049;-60
2022/11/30 01:24:38;;;;;;;58.75;33.50;;;6.10;99.90;;;;;;5005442;28;20124;-61
2022/11/30 01:27:04;;;;;;;61.05;34.08;;;6.40;99.90;;;;;;5005410;28;20440;-61
2022/11/30 01:29:30;;;;;;;57.60;32.97;;;6.60;99.90;;;;;;5004361;28;20050;-61
2022/11/30 01:31:55;;;;;;;57.60;33.65;;;6.60;99.90;;;;;;5005290;28;20100;-61
2022/11/30 01:34:21;;;;;;;60.58;34.45;;;6.10;99.90;;;;;;5004275;28;20477;-61
2022/11/30 01:36:47;;;;;;;65.70;34.15;;;6.20;99.90;;;;;;5005328;28;20572;-61
2022/11/30 01:39:13;;;;;;;64.60;36.10;;;6.10;99.90;;;;;;5004652;28;20124;-61
2022/11/30 01:41:39;;;;;;;64.47;35.95;;;6.70;99.90;;;;;;5020374;28;20654;-61
2022/11/30 01:44:05;;;;;;;63.78;35.53;;;6.10;99.90;;;;;;5004463;28;20052;-62
2022/11/30 01:46:53;;;;;;;60.53;33.90;;;5.90;99.90;;;;;;5005015;28;20149;-61
2022/11/30 01:49:27;;;;;;;59.45;33.67;;;6.00;99.90;;;;;;5005152;28;20046;-60
2022/11/30 01:52:04;;;;;;;59.15;34.40;;;6.30;99.90;;;;;;5020778;28;20050;-60
2022/11/30 01:54:35;;;;;;;56.78;34.03;;;6.30;99.90;;;;;;5005194;28;20052;-61
2022/11/30 01:57:27;;;;;;;57.75;32.75;;;6.50;99.90;;;;;;5004791;28;20124;-61
2022/11/30 01:59:55;;;;;;;58.67;33.40;;;5.80;99.90;;;;;;5001031;28;20112;-61
2022/11/30 02:02:30;;;;;;;56.33;32.47;;;6.90;99.90;;;;;;5005172;28;20046;-60
2022/11/30 02:04:56;;;;;;;59.67;33.90;;;5.80;99.90;;;;;;5016673;28;20046;-62
2022/11/30 02:07:22;;;;;;;55.17;32.40;;;6.00;99.90;;;;;;5011348;28;20041;-60
2022/11/30 02:09:48;;;;;;;57.22;33.40;;;6.50;99.90;;;;;;5004076;28;20060;-60
2022/11/30 02:12:33;;;;;;;53.97;32.40;;;6.20;99.90;;;;;;5004141;28;20105;-60
2022/11/30 02:15:07;;;;;;;57.33;32.60;;;6.00;99.90;;;;;;5018999;28;20140;-61
2022/11/30 02:18:04;;;;;;;55.78;32.22;;;5.90;99.90;;;;;;5017465;28;20643;-60
2022/11/30 02:20:56;;;;;;;54.22;33.00;;;6.20;99.90;;;;;;5004453;28;20065;-60
2022/11/30 02:23:37;;;;;;;58.72;32.88;;;6.30;99.90;;;;;;5004683;28;20050;-60
2022/11/30 02:26:27;;;;;;;56.90;33.17;;;6.10;99.90;;;;;;5004126;28;20367;-60
2022/11/30 02:29:04;;;;;;;59.67;33.30;;;6.20;99.90;;;;;;5005325;28;20045;-60
2022/11/30 02:32:02;;;;;;;63.75;34.63;;;5.90;99.90;;;;;;5003147;28;20046;-61
2022/11/30 02:34:29;;;;;;;59.15;33.13;;;6.00;99.90;;;;;;5004755;28;20046;-60
2022/11/30 02:36:57;;;;;;;57.70;32.95;;;5.80;99.90;;;;;;5004313;28;20053;-60
2022/11/30 02:39:23;;;;;;;54.40;31.38;;;6.10;99.90;;;;;;5003243;28;20090;-61
2022/11/30 02:41:49;;;;;;;52.08;29.98;;;5.90;99.90;;;;;;5003975;28;20045;-60
2022/11/30 02:44:15;;;;;;;51.15;30.55;;;6.10;99.90;;;;;;5001980;28;20049;-60
2022/11/30 02:47:08;;;;;;;55.83;31.58;;;6.20;99.90;;;;;;5003062;28;20034;-61
2022/11/30 02:49:56;;;;;;;52.17;31.05;;;5.80;99.90;;;;;;4984533;28;20424;-61
2022/11/30 02:52:25;;;;;;;48.47;30.58;;;6.10;99.90;;;;;;5002017;28;20045;-61
2022/11/30 02:54:52;;;;;;;48.58;29.55;;;6.30;99.90;;;;;;5003964;28;20042;-61
2022/11/30 02:57:18;;;;;;;47.67;29.73;;;6.00;99.90;;;;;;5002782;28;20053;-61
2022/11/30 02:59:44;;;;;;;46.72;29.77;;;6.00;99.90;;;;;;5002503;28;20050;-60
2022/11/30 03:02:09;;;;;;;47.75;29.85;;;6.00;99.90;;;;;;5003607;28;20157;-60
2022/11/30 03:04:35;;;;;;;47.50;29.98;;;6.10;99.90;;;;;;5006306;28;20057;-61
2022/11/30 03:07:01;;;;;;;49.13;30.90;;;5.90;99.90;;;;;;5011472;28;20653;-62
2022/11/30 03:09:26;;;;;;;47.38;30.15;;;6.00;99.90;;;;;;5004163;28;20045;-61
2022/11/30 03:11:52;;;;;;;49.72;29.88;;;6.10;99.90;;;;;;5003049;28;20077;-61
2022/11/30 03:14:18;;;;;;;48.92;29.15;;;6.00;99.90;;;;;;5003126;28;20046;-61
2022/11/30 03:16:43;;;;;;;49.97;30.80;;;5.70;99.90;;;;;;5002799;28;20377;-60
2022/11/30 03:19:09;;;;;;;46.90;29.65;;;6.50;99.90;;;;;;5003282;28;20539;-60
2022/11/30 03:21:35;;;;;;;50.38;29.98;;;5.80;99.90;;;;;;5003242;28;20653;-60
2022/11/30 03:24:00;;;;;;;51.38;30.98;;;6.20;99.90;;;;;;5004073;28;20042;-61
2022/11/30 03:26:26;;;;;;;49.17;30.20;;;6.10;99.90;;;;;;5002912;28;20041;-61
2022/11/30 03:28:51;;;;;;;53.22;31.05;;;5.80;99.90;;;;;;5002728;28;20054;-61
2022/11/30 03:31:17;;;;;;;52.53;29.60;;;6.00;99.90;;;;;;5001945;28;20100;-60
2022/11/30 03:33:43;;;;;;;47.22;28.95;;;6.10;99.90;;;;;;5002936;28;20048;-60
2022/11/30 03:36:11;;;;;;;49.78;29.90;;;5.80;99.90;;;;;;5017892;28;20539;-60
2022/11/30 03:38:37;;;;;;;46.92;29.05;;;5.90;99.90;;;;;;5003089;28;20481;-60
2022/11/30 03:41:09;;;;;;;48.42;29.40;;;6.10;99.90;;;;;;5002543;28;20046;-62
2022/11/30 03:43:35;;;;;;;45.00;28.23;;;6.00;99.90;;;;;;5003079;28;20397;-60
2022/11/30 03:46:01;;;;;;;47.13;28.95;;;6.10;99.90;;;;;;5002541;28;20100;-60
2022/11/30 03:48:27;;;;;;;46.13;28.25;;;6.80;99.90;;;;;;5002925;28;20125;-61
2022/11/30 03:50:53;;;;;;;47.50;28.63;;;6.10;99.90;;;;;;5003082;28;20076;-60
2022/11/30 03:53:21;;;;;;;45.78;28.25;;;6.10;99.90;;;;;;5002684;28;20444;-60
2022/11/30 03:55:55;;;;;;;46.03;28.58;;;5.80;99.90;;;;;;5001780;28;20068;-60
2022/11/30 03:58:22;;;;;;;46.78;28.60;;;6.00;99.90;;;;;;5002784;28;20479;-60
2022/11/30 04:00:47;;;;;;;47.47;28.55;;;5.70;99.90;;;;;;5001350;28;20669;-59
2022/11/30 04:03:14;;;;;;;45.72;27.88;;;5.80;99.90;;;;;;5002912;28;20045;-61
2022/11/30 04:05:39;;;;;;;47.88;28.35;;;5.90;99.90;;;;;;5013512;28;20140;-60
2022/11/30 04:08:05;;;;;;;46.88;28.73;;;5.90;99.90;;;;;;5002678;28;20145;-61
2022/11/30 04:10:31;;;;;;;47.15;29.25;;;5.70;99.90;;;;;;5003518;28;20081;-60
2022/11/30 04:12:57;;;;;;;46.78;28.33;;;6.00;99.90;;;;;;5002784;28;20097;-60
2022/11/30 04:15:22;;;;;;;49.60;28.90;;;6.10;99.90;;;;;;5002730;28;20050;-61
2022/11/30 04:17:48;;;;;;;47.33;28.15;;;6.00;99.90;;;;;;5002385;28;20069;-60
2022/11/30 04:20:14;;;;;;;49.45;29.48;;;5.80;99.90;;;;;;5003043;28;20045;-60
2022/11/30 04:22:39;;;;;;;43.58;27.00;;;6.10;99.90;;;;;;5002727;28;20038;-61
2022/11/30 04:25:05;;;;;;;46.42;28.73;;;6.00;99.90;;;;;;5002994;28;20657;-62
2022/11/30 04:27:31;;;;;;;46.05;28.65;;;5.80;99.90;;;;;;5002594;28;20061;-61
2022/11/30 04:29:57;;;;;;;50.15;29.48;;;5.90;99.90;;;;;;5002106;28;20038;-60
2022/11/30 04:32:22;;;;;;;44.90;28.20;;;5.70;99.90;;;;;;5001079;28;20054;-61
2022/11/30 04:34:48;;;;;;;46.67;27.92;;;6.10;99.90;;;;;;5005488;28;20034;-60
2022/11/30 04:37:14;;;;;;;44.17;27.75;;;5.90;99.90;;;;;;5004190;28;20133;-60
2022/11/30 04:39:39;;;;;;;42.85;26.85;;;5.70;99.90;;;;;;5005264;28;20552;-60
2022/11/30 04:42:05;;;;;;;45.58;27.48;;;6.20;99.90;;;;;;5006552;28;20046;-60
2022/11/30 04:44:31;;;;;;;41.17;26.85;;;5.70;99.90;;;;;;5005602;28;20072;-61
2022/11/30 04:46:56;;;;;;;41.38;26.08;;;5.90;99.90;;;;;;5004969;28;20555;-61
2022/11/30 04:49:22;;;;;;;44.08;26.80;;;6.00;99.90;;;;;;5005990;28;20046;-59
2022/11/30 04:51:48;;;;;;;41.78;25.90;;;6.00;99.90;;;;;;5006606;28;20045;-60
2022/11/30 04:54:13;;;;;;;39.17;25.65;;;6.10;99.90;;;;;;5006031;28;20489;-60
2022/11/30 04:56:39;;;;;;;38.85;25.02;;;5.70;99.90;;;;;;5006224;28;20041;-61
2022/11/30 04:59:04;;;;;;;41.13;25.70;;;5.70;99.90;;;;;;5005629;28;20057;-61
2022/11/30 05:01:30;;;;;;;39.22;25.65;;;6.00;99.90;;;;;;5005808;28;20048;-60
2022/11/30 05:03:58;;;;;;;37.30;24.38;;;6.10;99.90;;;;;;5006539;28;20050;-60
2022/11/30 05:06:25;;;;;;;39.67;25.92;;;5.90;99.90;;;;;;5014359;28;20053;-61
2022/11/30 05:08:50;;;;;;;37.42;25.02;;;6.20;99.90;;;;;;5005155;28;20503;-60
2022/11/30 05:11:16;;;;;;;36.97;24.67;;;6.10;99.90;;;;;;4988804;28;20050;-61
2022/11/30 05:13:41;;;;;;;36.42;23.63;;;5.90;99.90;;;;;;5004790;28;20615;-60
2022/11/30 05:16:09;;;;;;;37.40;24.10;;;5.70;99.90;;;;;;5005959;28;20064;-60
2022/11/30 05:18:35;;;;;;;33.53;24.00;;;6.30;99.90;;;;;;5005416;28;20053;-61
2022/11/30 05:21:01;;;;;;;34.50;23.52;;;5.70;99.90;;;;;;5004428;28;20042;-60
2022/11/30 05:23:27;;;;;;;34.90;23.38;;;6.20;99.90;;;;;;5005750;28;20050;-61
2022/11/30 05:25:53;;;;;;;31.23;22.15;;;5.90;99.90;;;;;;5003634;28;20117;-59
2022/11/30 05:28:19;;;;;;;32.00;22.45;;;6.20;99.90;;;;;;5004930;28;20042;-60
2022/11/30 05:30:44;;;;;;;27.60;21.25;;;5.80;99.90;;;;;;5003779;28;20245;-60
2022/11/30 05:33:11;;;;;;;30.70;21.15;;;6.20;99.90;;;;;;5005374;28;20080;-61
2022/11/30 05:35:37;;;;;;;27.88;21.17;;;6.00;99.90;;;;;;5005910;28;20082;-60
2022/11/30 05:38:03;;;;;;;28.05;20.50;;;5.90;99.90;;;;;;5005199;28;20121;-60
2022/11/30 05:40:31;;;;;;;28.38;20.30;;;5.70;99.90;;;;;;5005256;28;20052;-60
2022/11/30 05:42:59;;;;;;;28.10;20.77;;;5.60;99.90;;;;;;5005604;28;20456;-60
2022/11/30 05:45:25;;;;;;;28.60;19.92;;;5.80;99.90;;;;;;5004180;28;20558;-60
2022/11/30 05:47:50;;;;;;;27.70;20.65;;;5.60;99.90;;;;;;5004743;28;20129;-59
2022/11/30 05:50:17;;;;;;;27.70;20.52;;;5.70;99.90;;;;;;5020182;28;20042;-60
2022/11/30 05:52:42;;;;;;;28.35;20.70;;;5.90;99.90;;;;;;5005305;28;20046;-61
2022/11/30 05:55:08;;;;;;;25.48;20.17;;;5.80;99.90;;;;;;5005586;28;20063;-60
2022/11/30 05:57:38;;;;;;;26.55;20.23;;;5.90;99.90;;;;;;5003864;28;20517;-60
2022/11/30 06:00:06;;;;;;;27.23;21.08;;;5.50;99.90;;;;;;5004609;28;20042;-60
2022/11/30 06:02:32;;;;;;;25.25;19.75;;;5.80;99.90;;;;;;5004956;28;20132;-61
2022/11/30 06:04:57;;;;;;;26.63;20.17;;;6.00;99.90;;;;;;5009207;28;20234;-60
2022/11/30 06:07:23;;;;;;;26.80;20.27;;;5.50;99.90;;;;;;5010873;28;20182;-60
2022/11/30 06:09:49;;;;;;;26.73;20.52;;;5.60;99.90;;;;;;5003661;28;20049;-60
2022/11/30 06:12:14;;;;;;;27.30;21.10;;;5.90;99.90;;;;;;5004469;28;20108;-60
2022/11/30 06:14:40;;;;;;;28.48;21.40;;;5.60;99.90;;;;;;5003370;28;20551;-60
2022/11/30 06:17:05;;;;;;;26.55;20.67;;;5.70;99.90;;;;;;5004708;28;20088;-61
2022/11/30 06:19:31;;;;;;;28.90;21.80;;;5.50;99.90;;;;;;5005309;28;20077;-60
2022/11/30 06:21:57;;;;;;;28.58;21.52;;;6.10;99.90;;;;;;5004915;28;20440;-60
2022/11/30 06:24:22;;;;;;;29.20;22.50;;;5.80;99.90;;;;;;5004156;28;20471;-60
2022/11/30 06:26:48;;;;;;;31.20;22.85;;;5.70;99.90;;;;;;5003141;28;20057;-60
2022/11/30 06:29:13;;;;;;;32.45;23.52;;;6.40;99.90;;;;;;5004410;28;20100;-61
2022/11/30 06:31:39;;;;;;;32.13;22.85;;;5.90;99.90;;;;;;5004970;28;20096;-61
2022/11/30 06:34:05;;;;;;;31.85;22.88;;;5.90;99.90;;;;;;5003915;28;20057;-60
2022/11/30 06:36:31;;;;;;;33.78;23.50;;;5.90;99.90;;;;;;5004666;28;20042;-60
2022/11/30 06:38:57;;;;;;;35.10;23.77;;;5.90;99.90;;;;;;5019175;28;20053;-60
2022/11/30 06:41:22;;;;;;;36.30;24.58;;;5.50;99.90;;;;;;5003004;28;20045;-60
2022/11/30 06:43:48;;;;;;;34.28;23.70;;;5.90;99.90;;;;;;5003629;28;20567;-60
2022/11/30 06:46:14;;;;;;;33.08;24.20;;;5.60;99.90;;;;;;5010248;28;20113;-60
2022/11/30 06:48:39;;;;;;;32.33;23.42;;;5.60;99.90;;;;;;5024643;28;20061;-59
2022/11/30 06:51:07;;;;;;;32.28;23.02;;;5.70;99.90;;;;;;5023407;28;20041;-60
2022/11/30 06:53:32;;;;;;;27.40;20.60;;;5.70;99.90;;;;;;5023595;28;20056;-60
2022/11/30 06:55:58;;;;;;;28.63;20.55;;;5.50;99.90;;;;;;5023413;28;20042;-60
2022/11/30 06:58:24;;;;;;;26.25;20.27;;;5.50;99.90;;;;;;5021219;28;20072;-61
2022/11/30 07:00:49;;;;;;;25.50;19.80;;;5.80;99.90;;;;;;5022995;28;20104;-60
2022/11/30 07:03:15;;;;;;;25.02;19.65;;;5.70;99.90;;;;;;5023740;28;20041;-62
2022/11/30 07:05:45;;;;;;;29.55;20.80;;;5.90;99.90;;;;;;5017212;28;20046;-61
2022/11/30 07:08:12;;;;;;;26.92;19.75;;;6.10;99.90;;;;;;5003579;28;20081;-60
2022/11/30 07:10:40;;;;;;;23.23;19.08;;;5.60;99.90;;;;;;5003654;28;20122;-60
2022/11/30 07:13:12;;;;;;;24.50;19.33;;;5.70;99.90;;;;;;5002126;28;20057;-60
2022/11/30 07:15:39;;;;;;;22.40;17.95;;;5.70;99.90;;;;;;5002721;28;20479;-61
2022/11/30 07:18:05;;;;;;;23.73;18.33;;;5.80;99.90;;;;;;5003547;28;20045;-60
2022/11/30 07:20:31;;;;;;;23.40;18.73;;;5.70;99.90;;;;;;5002393;28;20571;-61
2022/11/30 07:26:04;;;;;;;23.15;18.83;;;5.80;99.90;;;;;;5003730;28;20054;-60
2022/11/30 07:28:27;;;;;;;23.73;19.98;;;5.70;99.90;;;;;;5002352;28;20042;-59
2022/11/30 07:30:52;;;;;;;24.60;19.42;;;5.60;99.90;;;;;;5003220;28;20049;-61
2022/11/30 07:33:18;;;;;;;24.70;19.55;;;5.40;99.90;;;;;;5003477;28;20508;-61
2022/11/30 07:35:43;;;;;;;25.42;19.30;;;5.70;99.90;;;;;;5003888;28;20053;-61
2022/11/30 07:38:09;;;;;;;24.55;19.52;;;6.10;99.90;;;;;;5002220;28;20106;-60
2022/11/30 07:40:35;;;;;;;23.92;19.10;;;5.70;99.90;;;;;;5003317;28;20042;-61
2022/11/30 07:43:00;;;;;;;24.98;19.38;;;5.80;99.90;;;;;;5002118;28;20045;-60
2022/11/30 07:45:26;;;;;;;22.23;18.75;;;5.70;99.90;;;;;;5001365;28;20389;-60
2022/11/30 07:47:51;;;;;;;24.50;18.92;;;5.60;99.90;;;;;;5001065;28;20054;-61
2022/11/30 07:50:17;;;;;;;25.55;20.02;;;5.60;99.90;;;;;;5002503;28;20045;-62
2022/11/30 07:52:43;;;;;;;25.63;19.95;;;5.60;99.90;;;;;;5003057;28;20061;-61
2022/11/30 07:55:08;;;;;;;25.60;20.05;;;5.80;99.90;;;;;;5001378;28;20042;-60
2022/11/30 07:57:34;;;;;;;26.30;19.83;;;5.80;99.90;;;;;;5002095;28;20085;-60
2022/11/30 08:00:00;;;;;;;26.77;20.15;;;5.80;99.90;;;;;;5001986;28;20434;-61
2022/11/30 08:02:25;;;;;;;28.55;21.02;;;5.50;99.90;;;;;;5002440;28;20073;-61
2022/11/30 08:04:51;;;;;;;29.13;21.63;;;5.40;99.90;;;;;;5007430;28;20117;-61
2022/11/30 08:07:17;;;;;;;29.48;22.02;;;5.80;99.90;;;;;;5009761;28;20548;-60
2022/11/30 08:09:44;;;;;;;28.13;21.35;;;5.40;99.90;;;;;;5005844;28;20113;-62
2022/11/30 08:12:09;;;;;;;29.80;21.98;;;5.40;99.90;;;;;;5006568;28;20100;-61
2022/11/30 08:14:35;;;;;;;28.77;21.23;;;5.70;99.90;;;;;;5005158;28;20077;-62
2022/11/30 08:17:01;;;;;;;32.55;22.45;;;6.00;99.90;;;;;;5007084;28;20104;-62
2022/11/30 08:19:26;;;;;;;32.55;23.15;;;6.10;99.90;;;;;;5006799;28;20072;-62
2022/11/30 08:21:52;;;;;;;33.90;22.80;;;5.80;99.90;;;;;;5006648;28;20117;-62
2022/11/30 08:24:18;;;;;;;33.15;23.05;;;5.70;99.90;;;;;;5006373;28;20131;-62
2022/11/30 08:26:43;;;;;;;34.47;23.38;;;5.70;99.90;;;;;;5007040;28;20049;-62
2022/11/30 08:29:10;;;;;;;35.72;23.55;;;6.10;99.90;;;;;;5006390;28;20049;-61
2022/11/30 08:31:36;;;;;;;33.25;23.63;;;5.90;99.90;;;;;;5005037;28;20141;-61
2022/11/30 08:34:05;;;;;;;38.30;24.60;;;6.50;99.90;;;;;;5005815;28;20125;-62
2022/11/30 08:36:31;;;;;;;38.17;24.67;;;5.80;99.90;;;;;;5006852;28;20050;-62
2022/11/30 08:38:59;;;;;;;38.78;24.02;;;6.20;99.90;;;;;;5006579;28;20041;-62
2022/11/30 08:41:25;;;;;;;39.75;25.40;;;5.60;99.90;;;;;;5005252;28;20426;-62
2022/11/30 08:43:52;;;;;;;36.10;23.88;;;5.90;99.90;;;;;;5005301;28;20050;-63
2022/11/30 08:46:19;;;;;;;39.33;25.85;;;5.70;99.90;;;;;;5006112;28;20065;-62
2022/11/30 08:48:45;;;;;;;37.00;24.50;;;5.60;99.90;;;;;;5005761;28;20405;-62
2022/11/30 08:51:13;;;;;;;38.53;24.65;;;6.20;99.90;;;;;;5004627;28;20046;-62
2022/11/30 08:53:39;;;;;;;37.03;24.77;;;6.40;99.90;;;;;;5006115;28;20125;-62
2022/11/30 08:56:07;;;;;;;36.67;25.10;;;5.80;99.90;;;;;;5005992;28;20128;-62
2022/11/30 08:58:35;;;;;;;38.38;25.13;;;5.60;99.90;;;;;;5004334;28;20125;-62
2022/11/30 09:01:19;;;;;;;40.58;26.13;;;6.50;99.90;;;;;;5005914;28;20038;-62
2022/11/30 09:03:47;;;;;;;40.65;26.73;;;5.90;99.90;;;;;;5005635;28;20137;-62
2022/11/30 09:06:15;;;;;;;40.78;25.60;;;6.00;99.90;;;;;;5016296;28;20050;-62
2022/11/30 09:08:42;;;;;;;39.15;27.10;;;5.60;99.90;;;;;;5005995;28;20046;-62
2022/11/30 09:11:14;;;;;;;41.40;26.77;;;5.90;99.90;;;;;;5006027;28;20448;-62
2022/11/30 09:13:40;;;;;;;39.55;26.65;;;5.60;99.90;;;;;;5003772;28;20054;-62
2022/11/30 09:16:07;;;;;;;43.30;27.52;;;5.90;99.90;;;;;;5005353;28;20044;-62
2022/11/30 09:18:33;;;;;;;42.45;26.55;;;5.60;99.90;;;;;;5005575;28;20429;-62
2022/11/30 09:21:00;;;;;;;42.47;27.23;;;6.00;99.90;;;;;;5004798;28;20397;-62
2022/11/30 09:23:26;;;;;;;43.03;27.95;;;6.20;99.90;;;;;;5005776;28;20050;-62
2022/11/30 09:26:00;;;;;;;48.15;29.48;;;6.20;99.90;;;;;;5020683;28;20088;-64
2022/11/30 09:28:29;;;;;;;46.35;28.85;;;5.70;99.90;;;;;;5004751;28;20112;-63
2022/11/30 09:31:03;;;;;;;45.65;29.17;;;5.80;99.90;;;;;;5005607;28;20044;-62
2022/11/30 09:33:29;;;;;;;45.72;29.08;;;5.90;99.90;;;;;;5005455;28;20088;-62
2022/11/30 09:36:00;;;;;;;46.65;28.42;;;6.10;99.90;;;;;;5005221;28;20081;-62
2022/11/30 09:38:25;;;;;;;49.83;29.65;;;6.00;99.90;;;;;;5005339;28;20084;-62
2022/11/30 09:41:18;;;;;;;49.45;29.52;;;5.60;99.90;;;;;;5005572;28;20070;-60
2022/11/30 09:43:58;;;;;;;49.53;30.00;;;5.80;99.90;;;;;;4985073;28;20064;-59
2022/11/30 09:46:33;;;;;;;53.35;32.13;;;6.30;99.90;;;;;;5005532;28;20116;-61
2022/11/30 09:49:30;;;;;;;49.63;29.45;;;6.10;99.90;;;;;;5003091;28;20048;-59
2022/11/30 09:51:59;;;;;;;53.40;30.35;;;5.80;99.90;;;;;;5002924;28;20054;-60
2022/11/30 09:54:35;;;;;;;41.70;24.23;;;6.50;99.90;;;;;;5005211;28;20042;-59
2022/11/30 09:57:28;;;;;;;52.28;30.92;;;6.80;99.90;;;;;;5005594;28;20108;-62
2022/11/30 10:00:09;;;;;;;53.58;31.00;;;5.80;99.90;;;;;;5005307;28;20041;-64
2022/11/30 10:02:37;;;;;;;54.20;29.27;;;6.00;99.90;;;;;;5005262;28;20045;-62
2022/11/30 10:05:11;;;;;;;50.78;30.58;;;6.00;99.90;;;;;;5009977;28;20057;-63
2022/11/30 10:07:58;;;;;;;54.00;30.58;;;6.10;99.90;;;;;;5003937;28;20069;-63
2022/11/30 10:10:55;;;;;;;52.05;29.65;;;5.70;99.90;;;;;;5004621;28;20057;-63
2022/11/30 10:13:39;;;;;;;51.75;30.65;;;6.20;99.90;;;;;;5004084;28;20484;-63
2022/11/30 10:16:34;;;;;;;52.10;30.27;;;6.20;99.90;;;;;;5004670;28;20104;-63
2022/11/30 10:19:33;;;;;;;49.80;28.83;;;6.10;99.90;;;;;;5004239;28;20058;-63
2022/11/30 10:22:27;;;;;;;55.15;31.67;;;6.00;99.90;;;;;;5004348;28;20038;-63
2022/11/30 10:25:14;;;;;;;60.67;33.95;;;5.80;99.90;;;;;;5004956;28;20614;-62
2022/11/30 10:27:58;;;;;;;58.13;32.78;;;5.80;99.90;;;;;;5004073;28;20409;-65
2022/11/30 10:30:29;;;;;;;66.80;34.15;;;6.00;99.90;;;;;;5003717;28;20058;-62
2022/11/30 10:32:57;;;;;;;64.13;35.25;;;6.10;99.90;;;;;;4985478;28;20099;-63
2022/11/30 10:35:32;;;;;;;68.68;35.85;;;6.50;99.90;;;;;;5005192;28;20385;-63
2022/11/30 10:38:02;;;;;;;62.10;36.35;;;5.80;99.90;;;;;;5004426;28;20045;-63
2022/11/30 10:41:03;;;;;;;62.72;34.92;;;5.90;99.90;;;;;;5003355;28;20042;-63
2022/11/30 10:43:37;;;;;;;68.97;35.70;;;6.20;99.90;;;;;;5003149;28;20053;-63
2022/11/30 10:46:04;;;;;;;66.68;36.42;;;6.00;99.90;;;;;;5005011;28;20051;-63
2022/11/30 10:48:39;;;;;;;71.50;36.65;;;5.80;99.90;;;;;;5004465;28;20247;-63
2022/11/30 10:51:05;;;;;;;71.20;37.88;;;5.80;99.90;;;;;;5002597;28;20089;-63
2022/11/30 10:53:32;;;;;;;71.07;38.17;;;6.10;99.90;;;;;;5004323;28;20077;-63
2022/11/30 10:56:08;;;;;;;77.13;38.83;;;5.90;99.90;;;;;;5004488;28;20050;-64
2022/11/30 10:58:55;;;;;;;88.88;40.95;;;6.10;99.90;;;;;;5002081;28;20496;-63
2022/11/30 11:01:35;;;;;;;80.93;38.70;;;6.00;99.90;;;;;;5004165;28;20049;-62
2022/11/30 11:04:22;;;;;;;77.57;39.28;;;6.20;99.90;;;;;;5004029;28;20128;-63
2022/11/30 11:06:54;;;;;;;79.03;39.10;;;5.90;99.90;;;;;;5012070;28;20048;-63
2022/11/30 11:09:28;;;;;;;74.38;39.08;;;6.30;99.90;;;;;;5000703;28;20056;-63
2022/11/30 11:12:01;;;;;;;73.18;38.35;;;6.20;99.90;;;;;;5003860;28;20069;-63
2022/11/30 11:14:27;;;;;;;71.03;37.92;;;6.00;99.90;;;;;;5003290;28;20100;-63
2022/11/30 11:17:02;;;;;;;77.30;40.13;;;6.10;99.90;;;;;;5001690;28;20037;-63
2022/11/30 11:19:35;;;;;;;79.35;39.63;;;5.80;99.90;;;;;;5003686;28;20210;-64
2022/11/30 11:22:22;;;;;;;84.05;41.40;;;6.00;99.90;;;;;;5003262;28;20129;-65
2022/11/30 11:24:52;;;;;;;90.25;41.78;;;5.90;99.90;;;;;;5002552;28;20127;-63
2022/11/30 11:27:31;;;;;;;82.10;41.60;;;6.40;99.90;;;;;;5002981;28;20185;-63
2022/11/30 11:30:15;;;;;;;79.40;41.60;;;6.00;99.90;;;;;;5003060;28;20050;-64
2022/11/30 11:33:00;;;;;;;76.72;39.50;;;5.90;99.90;;;;;;5002545;28;20041;-64
2022/11/30 11:35:40;;;;;;;77.10;40.85;;;6.00;99.90;;;;;;5002850;28;20064;-64
2022/11/30 11:38:19;;;;;;;69.15;38.35;;;5.70;99.90;;;;;;5001811;28;20038;-65
2022/11/30 11:40:57;;;;;;;69.45;39.80;;;6.00;99.90;;;;;;5017433;28;20667;-65
2022/11/30 11:43:26;;;;;;;60.92;35.53;;;5.90;99.90;;;;;;4999979;28;20069;-65
2022/11/30 11:45:54;;;;;;;61.10;35.80;;;5.90;99.90;;;;;;5001771;28;20046;-65
2022/11/30 11:48:48;;;;;;;59.60;35.33;;;6.10;99.90;;;;;;5002023;28;20038;-63
2022/11/30 11:51:32;;;;;;;59.75;36.47;;;5.90;99.90;;;;;;4995677;28;20053;-61
2022/11/30 11:54:13;;;;;;;64.20;38.10;;;6.10;99.90;;;;;;5004003;28;20049;-61
2022/11/30 11:56:39;;;;;;;64.47;37.97;;;6.40;99.90;;;;;;5003026;28;20056;-61
2022/11/30 11:59:25;;;;;;;49.20;30.38;;;6.60;99.90;;;;;;5002190;28;20050;-57
2022/11/30 12:02:11;;;;;;;67.72;39.10;;;6.30;99.90;;;;;;5002778;28;20435;-62
2022/11/30 12:04:44;;;;;;;71.03;40.88;;;6.30;99.90;;;;;;5005534;28;20046;-62
2022/11/30 12:07:36;;;;;;;65.18;39.03;;;6.50;99.90;;;;;;5014313;28;20536;-62
2022/11/30 12:10:05;;;;;;;68.57;39.92;;;6.40;99.90;;;;;;5023099;28;20102;-64
2022/11/30 12:12:31;;;;;;;72.32;40.78;;;6.40;99.90;;;;;;5021147;28;20049;-62
2022/11/30 12:14:57;;;;;;;67.22;40.17;;;6.50;99.90;;;;;;5023099;28;20060;-63
2022/11/30 12:17:45;;;;;;;67.18;41.42;;;6.10;99.90;;;;;;5022496;28;20049;-62
2022/11/30 12:21:06;;;;;;;72.03;39.78;;;6.10;99.90;;;;;;5022366;28;20050;-62
2022/11/30 12:24:00;;;;;;;67.47;39.78;;;6.30;99.90;;;;;;4979764;28;20129;-63
2022/11/30 12:26:31;;;;;;;63.55;37.90;;;5.90;99.90;;;;;;5002473;28;20454;-62
2022/11/30 12:29:18;;;;;;;69.60;39.25;;;6.20;99.90;;;;;;5001955;28;20100;-62
2022/11/30 12:32:11;;;;;;;65.63;39.25;;;5.80;99.90;;;;;;5016075;28;20230;-62
2022/11/30 12:35:06;;;;;;;60.47;36.83;;;6.10;99.90;;;;;;5030689;28;20165;-61
2022/11/30 12:37:37;;;;;;;64.60;38.15;;;6.40;99.90;;;;;;5030498;28;21955;-62
2022/11/30 12:40:29;;;;;;;65.55;40.22;;;6.20;99.90;;;;;;5031354;28;20479;-64
2022/11/30 12:43:29;;;;;;;62.08;37.55;;;6.10;99.90;;;;;;5033130;28;20053;-62
2022/11/30 12:46:08;;;;;;;66.85;39.53;;;6.60;99.90;;;;;;5019972;28;20049;-61
2022/11/30 12:48:51;;;;;;;71.18;39.67;;;6.00;99.90;;;;;;5043012;28;20483;-63
2022/11/30 12:51:26;;;;;;;72.00;39.30;;;6.00;99.90;;;;;;5042277;28;20052;-62
2022/11/30 12:54:09;;;;;;;71.65;40.83;;;5.90;99.90;;;;;;5042280;28;20179;-62
2022/11/30 12:56:43;;;;;;;75.18;41.22;;;6.10;99.90;;;;;;5044186;28;20110;-63